Beaufort, SC

9:20 PM EST on December 03, 2016 (GMT -0500)
Beaufort Marine Corps Air Station

Weather History for KNBC - April, 2014

Change the Weather History Date:

Friday, April 18, 2014

  Actual Average Record
Temperature  
Mean Temperature 60 °F -  
Max Temperature 63 °F 77 °F 91 °F (1967)
Min Temperature 57 °F 55 °F 39 °F (2001)
Degree Days  
Heating Degree Days 6    
Growing Degree Days 10 (Base 50)    
Moisture  
Dew Point 56 °F    
Average Humidity 89    
Maximum Humidity 97    
Minimum Humidity 65    
Precipitation  
Precipitation 3.19 in - - ()
Sea Level Pressure  
Sea Level Pressure 30.11 in    
Wind  
Wind Speed 11 mph (East)    
Max Wind Speed 18 mph    
Max Gust Speed 26 mph    
Visibility 6 miles    
Events Rain    
Averages and records for this station are not official NWS values.
T = Trace of Precipitation, MM = Missing Value Source: NWS Daily Summary

Daily Weather History Graph

Daily Weather History Graph

Search for Another Location

Airport or City:

Trip Planner

Search our weather history database for the weather conditions in past years. The results will help you decide how hot, cold, wet, or windy it might be!

Date:

Astronomy

Apr. 18, 2014 Rise Set
Actual Time 6:50 AM EDT 7:54 PM EDT
Civil Twilight 6:24 AM EDT 8:20 PM EDT
Nautical Twilight 5:54 AM EDT 8:50 PM EDT
Astronomical Twilight 5:23 AM EDT 9:21 PM EDT
Moon 11:31 PM EDT (4/18) 9:18 AM EDT (4/18)
Length of Visible Light 13h 55m
Length of Day
13h 04m
Waning Gibbous, 87% of the Moon is Illuminated
Apr 18
Waning Gibbous
Apr 22
Last Quarter
Apr 29
New
May 6
First Quarter
May 14
Full

Hourly Weather History & Observations

Time (EDT) Temp. Dew Point Humidity Pressure Visibility Wind Dir Wind Speed Gust Speed Precip Events Conditions
12:56 AM 61.0 °F 53.1 °F 75% 30.31 in 10.0 mi ESE 10.4 mph - N/A   Clear
1:56 AM 59.0 °F 53.1 °F 81% 30.30 in 10.0 mi ENE 5.8 mph - N/A   Clear
2:56 AM 57.9 °F 53.1 °F 84% 30.28 in 10.0 mi East 5.8 mph - N/A   Clear
3:56 AM 57.9 °F 53.1 °F 84% 30.25 in 10.0 mi East 8.1 mph - N/A   Clear
4:56 AM 57.0 °F 53.1 °F 87% 30.25 in 10.0 mi East 11.5 mph - N/A   Overcast
5:37 AM 57.0 °F 53.1 °F 87% 30.25 in 10.0 mi East 9.2 mph - N/A   Overcast
5:44 AM 57.0 °F 53.1 °F 87% 30.25 in 10.0 mi East 10.4 mph - N/A   Overcast
5:54 AM 57.2 °F 53.6 °F 88% 30.26 in 10.0 mi East 9.2 mph - N/A   Overcast
5:56 AM 57.0 °F 53.1 °F 87% 30.26 in 10.0 mi East 6.9 mph - N/A   Overcast
6:56 AM 57.0 °F 53.1 °F 87% 30.25 in 10.0 mi East 10.4 mph - N/A   Overcast
7:04 AM 57.0 °F 53.1 °F 87% 30.25 in 10.0 mi East 11.5 mph - N/A   Overcast
7:56 AM 57.0 °F 52.0 °F 83% 30.25 in 10.0 mi East 10.4 mph - N/A   Mostly Cloudy
8:56 AM 57.9 °F 51.1 °F 78% 30.27 in 10.0 mi East 11.5 mph 19.6 mph N/A   Overcast
9:56 AM 57.9 °F 50.0 °F 75% 30.26 in 10.0 mi East 12.7 mph - N/A   Overcast
10:56 AM 60.1 °F 50.0 °F 69% 30.26 in 10.0 mi East 12.7 mph - N/A   Overcast
11:56 AM 62.1 °F 50.0 °F 65% 30.25 in 10.0 mi East 11.5 mph - 0.00 in   Mostly Cloudy
12:56 PM 60.1 °F 53.1 °F 78% 30.20 in 10.0 mi East 13.8 mph - 0.01 in Rain Light Rain
1:56 PM 61.0 °F 54.0 °F 78% 30.16 in 6.0 mi East 10.4 mph 18.4 mph 0.01 in Rain Rain
2:56 PM 61.0 °F 55.9 °F 83% 30.13 in 3.0 mi East 9.2 mph - 0.03 in Rain Rain
3:16 PM 60.1 °F 57.0 °F 90% 30.14 in 2.5 mi ENE 5.8 mph - 0.06 in Rain Heavy Rain
3:41 PM 60.1 °F 57.0 °F 90% 30.13 in 1.2 mi ENE 6.9 mph - 0.28 in Rain Heavy Rain
3:56 PM 59.0 °F 57.0 °F 93% 30.12 in 1.0 mi NE 10.4 mph - 0.38 in Rain Heavy Rain
3:58 PM 59.0 °F 57.0 °F 93% 30.11 in 1.2 mi ENE 9.2 mph - 0.02 in Rain Heavy Rain
4:05 PM 59.0 °F 57.0 °F 93% 30.10 in 1.0 mi ENE 10.4 mph - 0.06 in Rain Heavy Rain
4:12 PM 59.0 °F 57.0 °F 93% 30.08 in 1.2 mi ENE 16.1 mph - 0.09 in Rain Heavy Rain
4:22 PM 59.0 °F 57.0 °F 93% 30.08 in 1.2 mi ESE 9.2 mph - 0.15 in Rain Heavy Rain
4:26 PM 59.0 °F 57.0 °F 93% 30.08 in 2.0 mi East 8.1 mph - 0.17 in Rain Heavy Rain
4:33 PM 60.1 °F 57.0 °F 90% 30.08 in 3.0 mi East 9.2 mph - 0.18 in Rain Rain
4:45 PM 60.1 °F 57.0 °F 90% 30.09 in 2.5 mi ENE 11.5 mph 19.6 mph 0.22 in Rain Heavy Rain
4:56 PM 60.1 °F 57.9 °F 93% 30.09 in 1.5 mi East 13.8 mph 20.7 mph 0.33 in Rain Heavy Rain
5:13 PM 60.1 °F 57.0 °F 90% 30.08 in 1.5 mi ENE 13.8 mph - 0.16 in Rain Heavy Rain
5:41 PM 57.9 °F 57.0 °F 97% 30.06 in 1.5 mi ENE 15.0 mph - 0.42 in Rain Heavy Rain
5:46 PM 59.0 °F 57.0 °F 93% 30.06 in 1.8 mi NE 16.1 mph - 0.45 in Rain Heavy Rain
5:53 PM 59.0 °F 57.0 °F 93% 30.06 in 2.0 mi ENE 11.5 mph - 0.51 in Rain Heavy Rain
6:00 PM 59.0 °F 57.0 °F 93% 30.05 in 1.8 mi ENE 15.0 mph - 0.06 in Rain Heavy Rain
6:56 PM 59.0 °F 57.0 °F 93% 30.05 in 1.2 mi East 13.8 mph 23.0 mph 0.63 in Rain Heavy Rain
7:02 PM 59.0 °F 57.0 °F 93% 30.04 in 2.0 mi East 12.7 mph 20.7 mph 0.04 in Rain Heavy Rain
7:10 PM 59.0 °F 57.0 °F 93% 30.04 in 1.8 mi East 11.5 mph 20.7 mph 0.13 in Rain Heavy Rain
7:21 PM 59.0 °F 57.0 °F 93% 30.03 in 2.5 mi ESE 11.5 mph 19.6 mph 0.24 in Rain Heavy Rain
7:56 PM 59.0 °F 57.0 °F 93% 30.02 in 2.0 mi East 17.3 mph 25.3 mph 0.57 in Rain Heavy Rain
8:04 PM 59.0 °F 57.0 °F 93% 30.01 in 2.0 mi East 18.4 mph 23.0 mph 0.09 in Rain Heavy Rain
8:08 PM 59.0 °F 57.0 °F 93% 30.01 in 3.0 mi ESE 11.5 mph - 0.10 in Rain Heavy Rain
8:23 PM 59.0 °F 57.0 °F 93% 30.03 in 2.5 mi East 15.0 mph 23.0 mph 0.21 in Rain Heavy Rain
8:34 PM 59.0 °F 57.0 °F 93% 30.03 in 1.5 mi East 12.7 mph 21.9 mph 0.44 in Rain Heavy Rain
8:43 PM 59.0 °F 57.0 °F 93% 30.03 in 2.0 mi East 11.5 mph 26.5 mph 0.51 in Rain Heavy Rain
8:52 PM 59.0 °F 57.2 °F 94% 30.04 in 4.0 mi East 12.7 mph 21.9 mph 0.54 in Rain Rain
8:56 PM 59.0 °F 57.0 °F 93% 30.04 in 4.0 mi ENE 11.5 mph - 0.56 in Rain Heavy Rain
9:34 PM 59.0 °F 57.0 °F 93% 30.02 in 6.0 mi ENE 11.5 mph - 0.12 in Rain Rain
9:41 PM 59.0 °F 57.0 °F 93% 30.02 in 7.0 mi East 11.5 mph - 0.13 in Rain Rain
9:56 PM 59.0 °F 57.0 °F 93% 30.01 in 9.0 mi East 15.0 mph - 0.15 in Rain Light Rain
10:03 PM 59.0 °F 57.0 °F 93% 30.01 in 10.0 mi East 13.8 mph - 0.00 in Rain Light Rain
10:17 PM 60.1 °F 57.0 °F 90% 30.00 in 10.0 mi ESE 11.5 mph 25.3 mph 0.00 in Rain Light Rain
10:29 PM 60.1 °F 57.0 °F 90% 30.00 in 10.0 mi East 13.8 mph 23.0 mph 0.01 in Rain Light Rain
10:40 PM 59.0 °F 57.0 °F 93% 29.99 in 10.0 mi East 17.3 mph 26.5 mph 0.01 in   Overcast
10:56 PM 59.0 °F 57.0 °F 93% 29.97 in 10.0 mi ESE 16.1 mph 26.5 mph 0.01 in Rain Light Rain
11:18 PM 60.1 °F 57.0 °F 90% 29.97 in 10.0 mi ESE 13.8 mph 26.5 mph 0.00 in   Overcast
11:52 PM 60.8 °F 57.2 °F 88% 29.97 in 10.0 mi ESE 9.2 mph 18.4 mph 0.00 in   Overcast
11:56 PM 60.1 °F 57.0 °F 90% 29.98 in 10.0 mi ESE 6.9 mph - 0.00 in   Overcast